createdAt,value
2023-07-01T00:00:53.118Z,17.69
2023-07-01T00:03:40.949Z,17.65
2023-07-01T00:06:08.757Z,17.65
2023-07-01T00:08:36.486Z,17.66
2023-07-01T00:11:04.413Z,17.65
2023-07-01T00:13:32.365Z,17.65
2023-07-01T00:16:01.097Z,17.65
2023-07-01T00:18:28.933Z,17.67
2023-07-01T00:20:56.957Z,17.67
2023-07-01T00:23:25.831Z,17.65
2023-07-01T00:25:53.606Z,17.65
2023-07-01T00:28:21.362Z,17.64
2023-07-01T00:30:49.639Z,17.64
2023-07-01T00:33:17.877Z,17.65
2023-07-01T00:35:47.081Z,17.66
2023-07-01T00:38:15.032Z,17.66
2023-07-01T00:40:42.911Z,17.66
2023-07-01T00:43:10.794Z,17.64
2023-07-01T00:45:38.533Z,17.63
2023-07-01T00:48:06.832Z,17.59
2023-07-01T00:50:35.291Z,17.60
2023-07-01T00:53:03.384Z,17.58
2023-07-01T00:55:31.186Z,17.58
2023-07-01T00:57:58.981Z,17.57
2023-07-01T01:00:26.805Z,17.57
2023-07-01T01:03:24.164Z,17.56
2023-07-01T01:05:57.598Z,17.55
2023-07-01T01:09:01.035Z,17.54
2023-07-01T01:11:33.797Z,17.55
2023-07-01T01:14:07.233Z,17.54
2023-07-01T01:16:35.979Z,17.53
2023-07-01T01:19:10.980Z,17.52
2023-07-01T01:21:39.898Z,17.49
2023-07-01T01:24:09.964Z,17.47
2023-07-01T01:26:42.519Z,17.46
2023-07-01T01:29:11.267Z,17.48
2023-07-01T01:31:39.090Z,17.47
2023-07-01T01:34:06.853Z,17.45
2023-07-01T01:36:43.067Z,17.44
2023-07-01T01:39:15.552Z,17.43
2023-07-01T01:41:55.697Z,17.43
2023-07-01T01:44:48.040Z,17.44
2023-07-01T01:47:20.686Z,17.46
2023-07-01T01:50:02.234Z,17.46
2023-07-01T01:52:33.407Z,17.47
2023-07-01T01:55:02.879Z,17.47
2023-07-01T01:57:31.108Z,17.46
2023-07-01T01:59:58.892Z,17.45
2023-07-01T02:02:27.135Z,17.45
2023-07-01T02:04:55.180Z,17.46
2023-07-01T02:07:23.211Z,17.48
2023-07-01T02:09:50.992Z,17.48
2023-07-01T02:12:19.086Z,17.48
2023-07-01T02:14:46.837Z,17.46
2023-07-01T02:17:14.833Z,17.45
2023-07-01T02:19:42.607Z,17.45
2023-07-01T02:22:10.406Z,17.45
2023-07-01T02:24:38.826Z,17.44
2023-07-01T02:27:07.393Z,17.45
2023-07-01T02:29:35.908Z,17.44
2023-07-01T02:32:04.020Z,17.44
2023-07-01T02:34:31.901Z,17.42
2023-07-01T02:37:00.256Z,17.43
2023-07-01T02:39:28.055Z,17.43
2023-07-01T02:41:56.327Z,17.41
2023-07-01T02:44:24.241Z,17.42
2023-07-01T02:46:51.956Z,17.43
2023-07-01T02:49:21.669Z,17.44
2023-07-01T02:51:49.584Z,17.44
2023-07-01T02:54:17.349Z,17.45
2023-07-01T02:56:45.387Z,17.45
2023-07-01T02:59:13.226Z,17.46
2023-07-01T03:01:41.762Z,17.45
2023-07-01T03:04:20.419Z,17.46
2023-07-01T03:06:49.256Z,17.46
2023-07-01T03:09:17.248Z,17.46
2023-07-01T03:11:46.400Z,17.45
2023-07-01T03:14:14.387Z,17.45
2023-07-01T03:16:43.238Z,17.45
2023-07-01T03:19:11.892Z,17.46
2023-07-01T03:21:40.611Z,17.44
2023-07-01T03:24:08.974Z,17.45
2023-07-01T03:26:37.233Z,17.44
2023-07-01T03:29:05.366Z,17.43
2023-07-01T03:31:34.800Z,17.41
2023-07-01T03:34:02.755Z,17.36
2023-07-01T03:36:30.636Z,17.35
2023-07-01T03:39:00.104Z,17.33
2023-07-01T03:41:27.959Z,17.30
2023-07-01T03:43:55.691Z,17.31
2023-07-01T03:46:23.659Z,17.30
2023-07-01T03:48:51.592Z,17.30
2023-07-01T03:51:19.616Z,17.31
2023-07-01T03:53:47.314Z,17.32
2023-07-01T03:56:15.069Z,17.32
2023-07-01T03:58:42.851Z,17.31
2023-07-01T04:01:10.894Z,17.31
2023-07-01T04:03:38.787Z,17.30
2023-07-01T04:06:06.692Z,17.32
2023-07-01T04:08:34.888Z,17.37
2023-07-01T04:11:03.550Z,17.35
2023-07-01T04:13:31.334Z,17.35
2023-07-01T04:15:59.318Z,17.36
2023-07-01T04:18:27.102Z,17.37
2023-07-01T04:20:55.074Z,17.39
2023-07-01T04:23:22.837Z,17.40
2023-07-01T04:25:50.686Z,17.37
2023-07-01T04:28:18.559Z,17.38
2023-07-01T04:30:46.706Z,17.42
2023-07-01T04:33:14.860Z,17.43
2023-07-01T04:35:42.663Z,17.43
2023-07-01T04:38:10.392Z,17.45
2023-07-01T04:40:38.358Z,17.46
2023-07-01T04:43:06.168Z,17.49
2023-07-01T04:45:35.025Z,17.48
2023-07-01T04:48:02.900Z,17.51
2023-07-01T04:50:30.828Z,17.51
2023-07-01T04:52:58.948Z,17.51
2023-07-01T04:55:26.694Z,17.48
2023-07-01T04:57:54.424Z,17.46
2023-07-01T05:00:22.698Z,17.46
2023-07-01T05:02:50.680Z,17.49
2023-07-01T05:05:18.817Z,17.52
2023-07-01T05:07:48.046Z,17.52
2023-07-01T05:10:15.971Z,17.54
2023-07-01T05:12:44.109Z,17.50
2023-07-01T05:15:12.246Z,17.43
2023-07-01T05:17:40.149Z,17.35
2023-07-01T05:20:09.456Z,17.32
2023-07-01T05:22:38.718Z,17.30
2023-07-01T05:25:13.785Z,17.28
2023-07-01T05:27:44.977Z,17.23
2023-07-01T05:30:12.888Z,17.21
2023-07-01T05:32:40.840Z,17.20
2023-07-01T05:35:10.088Z,17.19
2023-07-01T05:37:37.972Z,17.21
2023-07-01T05:40:06.882Z,17.29
2023-07-01T05:42:34.774Z,17.30
2023-07-01T05:45:02.594Z,17.33
2023-07-01T05:47:30.563Z,17.39
2023-07-01T05:49:58.606Z,17.44
2023-07-01T05:52:27.885Z,17.48
2023-07-01T05:54:56.057Z,17.55
2023-07-01T05:57:23.783Z,17.63
2023-07-01T05:59:51.585Z,17.67
2023-07-01T06:02:19.359Z,17.70
2023-07-01T06:04:47.280Z,17.74
2023-07-01T06:07:15.067Z,17.79
2023-07-01T06:09:50.393Z,17.87
2023-07-01T06:12:18.350Z,17.92
2023-07-01T06:14:46.094Z,17.88
2023-07-01T06:17:13.941Z,17.84
2023-07-01T06:19:41.752Z,17.77
2023-07-01T06:22:09.572Z,17.75
2023-07-01T06:24:37.495Z,17.74
2023-07-01T06:27:05.881Z,17.71
2023-07-01T06:29:41.938Z,17.72
2023-07-01T06:32:15.298Z,17.78
2023-07-01T06:34:43.207Z,17.84
2023-07-01T06:37:10.967Z,17.92
2023-07-01T06:39:39.469Z,18.00
2023-07-01T06:42:07.813Z,18.13
2023-07-01T06:44:35.636Z,18.14
2023-07-01T06:47:03.769Z,18.16
2023-07-01T06:49:31.502Z,18.17
2023-07-01T06:51:59.424Z,18.17
2023-07-01T06:54:27.127Z,18.17
2023-07-01T06:56:55.064Z,18.15
2023-07-01T06:59:23.218Z,18.15
2023-07-01T07:01:51.248Z,18.20
2023-07-01T07:04:19.167Z,18.30
2023-07-01T07:06:47.059Z,18.38
2023-07-01T07:09:16.486Z,18.46
2023-07-01T07:11:45.872Z,18.45
2023-07-01T07:14:13.939Z,18.44
2023-07-01T07:16:48.012Z,18.47
2023-07-01T07:19:16.018Z,18.43
2023-07-01T07:21:43.812Z,18.35
2023-07-01T07:24:11.613Z,18.24
2023-07-01T07:26:39.638Z,18.28
2023-07-01T07:29:07.710Z,18.36
2023-07-01T07:31:35.659Z,18.37
2023-07-01T07:34:03.490Z,18.42
2023-07-01T07:36:31.342Z,18.56
2023-07-01T07:38:59.237Z,18.63
2023-07-01T07:41:27.509Z,18.60
2023-07-01T07:43:55.340Z,18.51
2023-07-01T07:46:23.146Z,18.49
2023-07-01T07:48:51.171Z,18.53
2023-07-01T07:51:18.942Z,18.57
2023-07-01T07:53:46.808Z,18.64
2023-07-01T07:56:14.707Z,18.67
2023-07-01T07:58:42.478Z,18.73
2023-07-01T08:01:10.212Z,18.76
2023-07-01T08:03:38.044Z,18.86
2023-07-01T08:06:06.362Z,19.02
2023-07-01T08:08:35.567Z,19.24
2023-07-01T08:11:03.618Z,19.37
2023-07-01T08:13:31.385Z,19.50
2023-07-01T08:15:59.652Z,19.47
2023-07-01T08:18:27.472Z,19.41
2023-07-01T08:20:55.302Z,19.37
2023-07-01T08:23:23.184Z,19.44
2023-07-01T08:25:51.097Z,19.56
2023-07-01T08:28:19.149Z,19.63
2023-07-01T08:30:47.421Z,19.70
2023-07-01T08:33:15.600Z,19.83
2023-07-01T08:35:43.486Z,19.88
2023-07-01T08:38:11.316Z,19.86
2023-07-01T08:40:39.877Z,19.86
2023-07-01T08:43:11.071Z,19.72
2023-07-01T08:45:40.102Z,19.41
2023-07-01T08:48:08.491Z,18.92
2023-07-01T08:50:54.223Z,18.50
2023-07-01T08:53:22.698Z,18.24
2023-07-01T08:55:53.339Z,18.02
2023-07-01T08:58:21.562Z,17.86
2023-07-01T09:00:50.115Z,17.67
2023-07-01T09:03:17.956Z,17.49
2023-07-01T09:05:45.880Z,17.43
2023-07-01T09:08:14.092Z,17.56
2023-07-01T09:10:44.587Z,17.77
2023-07-01T09:13:14.034Z,18.00
2023-07-01T09:15:49.632Z,18.20
2023-07-01T09:18:26.050Z,18.55
2023-07-01T09:20:54.482Z,18.89
2023-07-01T09:23:35.242Z,19.13
2023-07-01T09:26:11.649Z,19.43
2023-07-01T09:28:40.716Z,19.57
2023-07-01T09:31:16.321Z,19.70
2023-07-01T09:34:06.897Z,19.76
2023-07-01T09:36:34.730Z,19.93
2023-07-01T09:39:06.930Z,20.02
2023-07-01T09:41:34.820Z,19.97
2023-07-01T09:44:16.326Z,19.98
2023-07-01T09:46:48.066Z,19.89
2023-07-01T09:49:16.103Z,19.86
2023-07-01T09:51:52.208Z,19.89
2023-07-01T09:54:31.756Z,19.97
2023-07-01T09:57:00.936Z,20.13
2023-07-01T09:59:29.084Z,20.38
2023-07-01T10:01:58.933Z,20.55
2023-07-01T10:04:29.785Z,20.66
2023-07-01T10:06:58.673Z,20.77
2023-07-01T10:09:28.490Z,20.88
2023-07-01T10:12:00.361Z,20.91
2023-07-01T10:14:34.498Z,21.02
2023-07-01T10:17:02.800Z,21.13
2023-07-01T10:19:36.038Z,21.12
2023-07-01T10:22:29.960Z,21.13
2023-07-01T10:25:04.521Z,21.17
2023-07-01T10:27:44.442Z,21.03
2023-07-01T10:30:13.860Z,20.91
2023-07-01T10:32:42.581Z,20.95
2023-07-01T10:35:13.014Z,20.90
2023-07-01T10:37:41.492Z,20.90
2023-07-01T10:40:31.008Z,20.98
2023-07-01T10:43:47.641Z,21.14
2023-07-01T10:46:26.100Z,21.14
2023-07-01T10:49:03.406Z,21.27
2023-07-01T10:51:52.494Z,21.35
2023-07-01T10:54:38.665Z,21.29
2023-07-01T10:57:19.370Z,21.34
2023-07-01T10:59:47.374Z,21.38
2023-07-01T11:02:39.697Z,21.50
2023-07-01T11:05:09.985Z,21.53
2023-07-01T11:07:42.313Z,21.46
2023-07-01T11:10:10.742Z,21.29
2023-07-01T11:12:39.343Z,21.12
2023-07-01T11:15:08.022Z,21.06
2023-07-01T11:17:36.057Z,21.17
2023-07-01T11:20:04.695Z,21.20
2023-07-01T11:22:32.791Z,21.29
2023-07-01T11:25:07.605Z,21.45
2023-07-01T11:27:43.643Z,21.49
2023-07-01T11:30:32.904Z,21.46
2023-07-01T11:33:19.104Z,21.50
2023-07-01T11:35:53.205Z,21.40
2023-07-01T11:38:28.405Z,21.21
2023-07-01T11:40:56.803Z,21.25
2023-07-01T11:43:24.752Z,21.41
2023-07-01T11:45:53.648Z,21.71
2023-07-01T11:48:33.076Z,21.84
2023-07-01T11:51:00.832Z,21.84
2023-07-01T11:53:29.011Z,21.67
2023-07-01T11:55:57.706Z,21.30
2023-07-01T11:58:35.474Z,21.09
2023-07-01T12:01:03.386Z,20.93
2023-07-01T12:03:34.945Z,20.88
2023-07-01T12:06:05.839Z,21.02
2023-07-01T12:09:07.472Z,21.41
2023-07-01T12:11:49.132Z,21.39
2023-07-01T12:14:22.766Z,21.31
2023-07-01T12:16:51.717Z,21.25
2023-07-01T12:19:21.983Z,21.27
2023-07-01T12:21:52.245Z,21.28
2023-07-01T12:24:25.263Z,21.45
2023-07-01T12:26:56.891Z,21.69
2023-07-01T12:29:26.328Z,21.86
2023-07-01T12:31:55.339Z,22.17
2023-07-01T12:34:23.502Z,22.39
2023-07-01T12:36:51.574Z,22.41
2023-07-01T12:39:19.600Z,22.37
2023-07-01T12:41:55.420Z,22.34
2023-07-01T12:44:23.336Z,22.35
2023-07-01T12:46:51.955Z,22.50
2023-07-01T12:49:19.857Z,22.66
2023-07-01T12:51:47.910Z,22.86
2023-07-01T12:54:18.304Z,22.83
2023-07-01T12:56:47.054Z,22.73
2023-07-01T12:59:15.069Z,22.82
2023-07-01T13:01:46.149Z,22.68
2023-07-01T13:04:19.485Z,22.60
2023-07-01T13:06:49.048Z,22.35
2023-07-01T13:09:28.422Z,22.09
2023-07-01T13:11:56.124Z,21.80
2023-07-01T13:14:23.885Z,21.67
2023-07-01T13:16:51.686Z,21.61
2023-07-01T13:19:22.209Z,21.62
2023-07-01T13:21:50.256Z,21.74
2023-07-01T13:24:18.249Z,21.90
2023-07-01T13:26:48.420Z,22.09
2023-07-01T13:29:20.142Z,22.21
2023-07-01T13:31:50.228Z,22.16
2023-07-01T13:34:23.194Z,21.93
2023-07-01T13:36:54.229Z,21.70
2023-07-01T13:39:34.192Z,21.60
2023-07-01T13:42:02.046Z,21.67
2023-07-01T13:44:30.335Z,21.72
2023-07-01T13:46:58.204Z,21.86
2023-07-01T13:49:30.050Z,22.00
2023-07-01T13:51:57.979Z,22.03
2023-07-01T13:54:27.996Z,22.11
2023-07-01T13:57:01.619Z,22.24
2023-07-01T13:59:31.568Z,22.38
2023-07-01T14:02:07.469Z,22.50
2023-07-01T14:04:37.961Z,22.45
2023-07-01T14:07:06.739Z,22.47
2023-07-01T14:09:38.652Z,22.57
2023-07-01T14:12:07.121Z,22.57
2023-07-01T14:14:34.895Z,22.42
2023-07-01T14:17:03.741Z,22.17
2023-07-01T14:19:31.796Z,22.14
2023-07-01T14:22:01.133Z,22.37
2023-07-01T14:24:30.573Z,22.49
2023-07-01T14:27:01.574Z,22.41
2023-07-01T14:29:29.884Z,22.36
2023-07-01T14:31:58.477Z,22.21
2023-07-01T14:34:39.652Z,22.05
2023-07-01T14:37:07.364Z,22.40
2023-07-01T14:39:45.901Z,22.76
2023-07-01T14:42:26.098Z,23.05
2023-07-01T14:44:55.602Z,23.20
2023-07-01T14:47:23.655Z,23.35
2023-07-01T14:49:51.501Z,23.24
2023-07-01T14:52:21.346Z,23.18
2023-07-01T14:54:50.362Z,23.14
2023-07-01T14:57:18.170Z,23.00
2023-07-01T14:59:45.938Z,23.05
2023-07-01T15:02:13.664Z,23.19
2023-07-01T15:04:41.489Z,23.50
2023-07-01T15:07:09.666Z,23.83
2023-07-01T15:09:37.534Z,23.95
2023-07-01T15:12:05.848Z,24.24
2023-07-01T15:14:33.600Z,24.41
2023-07-01T15:17:01.289Z,24.33
2023-07-01T15:19:29.635Z,24.21
2023-07-01T15:21:57.689Z,24.23
2023-07-01T15:24:25.495Z,24.38
2023-07-01T15:26:54.598Z,24.40
2023-07-01T15:29:22.376Z,24.69
2023-07-01T15:31:50.186Z,24.94
2023-07-01T15:34:17.908Z,24.79
2023-07-01T15:36:46.954Z,24.49
2023-07-01T15:39:14.832Z,24.15
2023-07-01T15:41:47.664Z,24.11
2023-07-01T15:44:16.743Z,24.15
2023-07-01T15:46:44.607Z,24.15
2023-07-01T15:49:12.486Z,24.02
2023-07-01T15:51:41.226Z,23.95
2023-07-01T15:54:09.470Z,23.87
2023-07-01T15:56:37.153Z,24.00
2023-07-01T15:59:05.188Z,23.95
2023-07-01T16:01:35.994Z,23.86
2023-07-01T16:04:05.732Z,24.10
2023-07-01T16:06:34.258Z,24.47
2023-07-01T16:09:24.792Z,24.66
2023-07-01T16:11:52.539Z,24.81
2023-07-01T16:14:20.277Z,24.77
2023-07-01T16:16:49.010Z,24.59
2023-07-01T16:19:19.753Z,24.18
2023-07-01T16:21:48.143Z,23.89
2023-07-01T16:24:41.096Z,23.73
2023-07-01T16:27:09.194Z,23.96
2023-07-01T16:29:37.079Z,24.12
2023-07-01T16:32:05.969Z,24.10
2023-07-01T16:34:38.206Z,24.18
2023-07-01T16:37:06.012Z,24.10
2023-07-01T16:39:50.473Z,23.92
2023-07-01T16:42:22.060Z,23.79
2023-07-01T16:44:55.014Z,23.51
2023-07-01T16:47:24.547Z,23.31
2023-07-01T16:50:02.517Z,23.24
2023-07-01T16:52:31.084Z,23.31
2023-07-01T16:54:58.907Z,23.54
2023-07-01T16:57:26.716Z,23.34
2023-07-01T16:59:54.481Z,23.07
2023-07-01T17:02:31.702Z,22.83
2023-07-01T17:05:08.498Z,22.67
2023-07-01T17:07:36.796Z,22.55
2023-07-01T17:10:05.733Z,22.49
2023-07-01T17:12:34.374Z,22.47
2023-07-01T17:15:08.422Z,22.66
2023-07-01T17:17:43.153Z,22.75
2023-07-01T17:20:12.031Z,22.82
2023-07-01T17:22:40.910Z,22.91
2023-07-01T17:25:09.533Z,23.05
2023-07-01T17:27:37.439Z,22.99
2023-07-01T17:30:06.102Z,22.76
2023-07-01T17:32:34.500Z,22.61
2023-07-01T17:35:16.853Z,22.61
2023-07-01T17:37:49.495Z,22.77
2023-07-01T17:40:23.092Z,22.83
2023-07-01T17:42:53.309Z,22.92
2023-07-01T17:45:22.140Z,22.95
2023-07-01T17:47:51.021Z,22.66
2023-07-01T17:50:21.868Z,22.37
2023-07-01T17:52:52.592Z,22.13
2023-07-01T17:55:20.641Z,22.06
2023-07-01T18:00:19.151Z,22.18
2023-07-01T18:02:46.921Z,22.12
2023-07-01T18:05:15.048Z,21.95
2023-07-01T18:07:43.646Z,21.87
2023-07-01T18:10:12.316Z,21.81
2023-07-01T18:12:42.076Z,21.73
2023-07-01T18:15:14.865Z,21.64
2023-07-01T18:17:45.903Z,21.56
2023-07-01T18:20:14.735Z,21.50
2023-07-01T18:22:42.857Z,21.54
2023-07-01T18:25:13.863Z,21.47
2023-07-01T18:27:42.039Z,21.42
2023-07-01T18:30:14.357Z,21.36
2023-07-01T18:32:45.412Z,21.32
2023-07-01T18:35:15.695Z,21.31
2023-07-01T18:37:47.497Z,21.29
2023-07-01T18:40:17.008Z,21.19
2023-07-01T18:42:45.678Z,21.15
2023-07-01T18:45:14.203Z,21.07
2023-07-01T18:47:42.919Z,21.03
2023-07-01T18:50:12.095Z,21.03
2023-07-01T18:52:41.431Z,21.06
2023-07-01T18:55:09.753Z,21.00
2023-07-01T18:57:37.713Z,20.95
2023-07-01T19:00:06.821Z,20.89
2023-07-01T19:02:34.841Z,20.79
2023-07-01T19:05:05.616Z,20.72
2023-07-01T19:07:33.926Z,20.64
2023-07-01T19:10:02.389Z,20.57
2023-07-01T19:12:30.293Z,20.51
2023-07-01T19:14:58.247Z,20.47
2023-07-01T19:17:27.103Z,20.40
2023-07-01T19:19:54.886Z,20.33
2023-07-01T19:22:29.228Z,20.23
2023-07-01T19:24:57.405Z,20.11
2023-07-01T19:27:25.419Z,19.99
2023-07-01T19:30:07.932Z,19.90
2023-07-01T19:32:42.310Z,19.84
2023-07-01T19:35:10.174Z,19.83
2023-07-01T19:37:38.062Z,19.82
2023-07-01T19:40:06.393Z,19.75
2023-07-01T19:42:34.182Z,19.65
2023-07-01T19:45:02.088Z,19.57
2023-07-01T19:47:29.942Z,19.51
2023-07-01T19:49:57.729Z,19.40
2023-07-01T19:52:25.818Z,19.30
2023-07-01T19:54:54.428Z,19.19
2023-07-01T19:57:22.225Z,19.11
2023-07-01T19:59:49.968Z,19.01
2023-07-01T20:02:17.684Z,18.93
2023-07-01T20:04:45.575Z,18.84
2023-07-01T20:07:13.467Z,18.77
2023-07-01T20:09:41.413Z,18.71
2023-07-01T20:12:09.369Z,18.65
2023-07-01T20:14:37.383Z,18.56
2023-07-01T20:17:05.164Z,18.48
2023-07-01T20:19:33.094Z,18.39
2023-07-01T20:22:00.835Z,18.32
2023-07-01T20:24:28.725Z,18.24
2023-07-01T20:26:56.555Z,18.16
2023-07-01T20:29:29.657Z,18.07
2023-07-01T20:31:57.528Z,17.98
2023-07-01T20:34:25.470Z,17.90
2023-07-01T20:36:53.215Z,17.81
2023-07-01T20:39:20.929Z,17.74
2023-07-01T20:42:02.994Z,17.68
2023-07-01T20:44:39.069Z,17.61
2023-07-01T20:47:07.892Z,17.57
2023-07-01T20:49:35.805Z,17.52
2023-07-01T20:52:04.575Z,17.49
2023-07-01T20:54:32.386Z,17.47
2023-07-01T20:57:00.213Z,17.40
2023-07-01T20:59:31.689Z,17.35
2023-07-01T21:02:01.578Z,17.32
2023-07-01T21:04:30.024Z,17.26
2023-07-01T21:06:57.857Z,17.22
2023-07-01T21:09:25.894Z,17.15
2023-07-01T21:11:53.843Z,17.11
2023-07-01T21:14:22.565Z,17.08
2023-07-01T21:16:51.412Z,17.02
2023-07-01T21:19:19.312Z,16.98
2023-07-01T21:21:48.629Z,16.95
2023-07-01T21:24:16.701Z,16.91
2023-07-01T21:26:44.623Z,16.87
2023-07-01T21:29:16.440Z,16.85
2023-07-01T21:31:50.992Z,16.82
2023-07-01T21:34:21.060Z,16.81
2023-07-01T21:36:51.186Z,16.79
2023-07-01T21:39:23.875Z,16.76
2023-07-01T21:41:51.850Z,16.70
2023-07-01T21:44:19.911Z,16.66
2023-07-01T21:46:47.914Z,16.58
2023-07-01T21:49:20.672Z,16.54
2023-07-01T21:51:48.669Z,16.51
2023-07-01T21:54:20.023Z,16.44
2023-07-01T21:56:49.298Z,16.39
2023-07-01T21:59:17.575Z,16.31
2023-07-01T22:01:46.957Z,16.23
2023-07-01T22:04:16.097Z,16.12
2023-07-01T22:06:47.381Z,16.06
2023-07-01T22:09:17.148Z,16.05
2023-07-01T22:11:46.032Z,16.09
2023-07-01T22:14:14.152Z,16.07
2023-07-01T22:16:42.321Z,16.05
2023-07-01T22:19:10.365Z,16.07
2023-07-01T22:21:39.542Z,16.01
2023-07-01T22:24:07.632Z,15.98
2023-07-01T22:26:35.776Z,15.97
2023-07-01T22:29:03.659Z,15.92
2023-07-01T22:31:32.557Z,15.87
2023-07-01T22:34:00.445Z,15.85
2023-07-01T22:36:28.272Z,15.81
2023-07-01T22:38:58.592Z,15.76
2023-07-01T22:41:26.380Z,15.70
2023-07-01T22:43:54.236Z,15.66
2023-07-01T22:46:22.231Z,15.61
2023-07-01T22:48:50.458Z,15.54
2023-07-01T22:51:18.709Z,15.46
2023-07-01T22:53:47.654Z,15.38
2023-07-01T22:56:15.588Z,15.28
2023-07-01T22:58:43.596Z,15.18
2023-07-01T23:01:11.404Z,15.11
2023-07-01T23:03:39.513Z,15.04
2023-07-01T23:06:07.668Z,14.98
2023-07-01T23:08:35.455Z,14.94
2023-07-01T23:11:03.256Z,14.95
2023-07-01T23:13:31.240Z,14.90
2023-07-01T23:15:59.104Z,14.89
2023-07-01T23:18:26.930Z,14.87
2023-07-01T23:20:55.335Z,14.81
2023-07-01T23:23:23.458Z,14.75
2023-07-01T23:25:51.186Z,14.73
2023-07-01T23:28:19.298Z,14.73
2023-07-01T23:30:47.318Z,14.71
2023-07-01T23:33:17.878Z,14.61
2023-07-01T23:35:45.849Z,14.61
2023-07-01T23:38:13.688Z,14.58
2023-07-01T23:40:41.406Z,14.55
2023-07-01T23:43:09.186Z,14.47
2023-07-01T23:45:37.029Z,14.41
2023-07-01T23:48:05.313Z,14.39
2023-07-01T23:50:33.031Z,14.35
2023-07-01T23:53:01.117Z,14.33
2023-07-01T23:55:28.979Z,14.32
2023-07-01T23:57:56.795Z,14.28
